This is the latest recevied weather packets stored in our database for station/object VE3MNX. If no packets are shown the sender has not sent any weather packets the latest 10 day(s).
| Time | Temp. | Humidity | Pressure | Rain* | Wind** | Luminosity | Snow |
|---|---|---|---|---|---|---|---|
| 1777996398 | 15° C | 81% | 1004.2 hPa | 0 mm | - | - | - |
| 1777995497 | 15° C | 82% | 1004.1 hPa | 0 mm | - | - | - |
| 1777994597 | 16.67° C | 78% | 1004.1 hPa | 0 mm | - | - | - |
| 1777993696 | 16.11° C | 82% | 1003.7 hPa | 0 mm | - | - | - |
| 1777992798 | 15° C | 90% | 1003.4 hPa | 0 mm | - | - | - |
| 1777991897 | 14.44° C | 90% | 1003 hPa | 0 mm | - | - | - |
| 1777990998 | 16.67° C | 83% | 1002.7 hPa | 0 mm | - | - | - |
| 1777989198 | 17.22° C | 80% | 1002.4 hPa | 0 mm | - | - | - |
| 1777988299 | 16.11° C | 86% | 1001.7 hPa | 0 mm | - | - | - |
| 1777987398 | 16.11° C | 83% | 1002 hPa | 0 mm | - | - | - |
| 1777986497 | 16.67° C | 85% | 1002.4 hPa | 0 mm | - | - | - |
| 1777985599 | 16.11° C | 86% | 1002.4 hPa | 0 mm | - | - | - |
| 1777984697 | 15.56° C | 86% | 1002.4 hPa | 0 mm | - | - | - |
| 1777983798 | 15° C | 88% | 1002.4 hPa | 0 mm | - | - | - |
| 1777982896 | 13.89° C | 90% | 1002 hPa | 0 mm | - | - | - |
| 1777981997 | 13.33° C | 92% | 1002 hPa | 0 mm | - | - | - |
| 1777981096 | 13.33° C | 92% | 1001.7 hPa | 0 mm | - | - | - |
| 1777980197 | 11.67° C | 96% | 1001.4 hPa | 0 mm | - | - | - |
| 1777979297 | 12.22° C | 96% | 1001.4 hPa | 0 mm | - | - | - |
| 1777978397 | 12.78° C | 95% | 1001 hPa | 0 mm | - | - | - |
| 1777977497 | 13.33° C | 93% | 1000.7 hPa | 0 mm | - | - | - |
| 1777976598 | 12.78° C | 93% | 1000.3 hPa | 0 mm | - | - | - |
| 1777975696 | 13.89° C | 91% | 1000 hPa | 0 mm | - | - | - |
| 1777974798 | 12.78° C | 92% | 1000 hPa | 0 mm | - | - | - |
| 1777973897 | 14.44° C | 88% | 1000 hPa | 0 mm | - | - | - |
* Rain latest hour (hover to see other rain measurements)
** Current wind speed in m/s (hover to see current wind gust speed)